sensor_id;sensor_type;location;lat;lon;timestamp;P1;durP1;ratioP1;P2;durP2;ratioP2
3257;SDS011;1641;51.306;12.384;2022-11-21T00:00:21;41.72;;;19.98;;
3257;SDS011;1641;51.306;12.384;2022-11-21T00:02:47;39.60;;;20.90;;
3257;SDS011;1641;51.306;12.384;2022-11-21T00:05:12;39.47;;;18.90;;
3257;SDS011;1641;51.306;12.384;2022-11-21T00:07:38;45.30;;;21.73;;
3257;SDS011;1641;51.306;12.384;2022-11-21T00:10:03;39.47;;;22.23;;
3257;SDS011;1641;51.306;12.384;2022-11-21T00:12:29;36.88;;;16.45;;
3257;SDS011;1641;51.306;12.384;2022-11-21T00:14:54;38.10;;;20.83;;
3257;SDS011;1641;51.306;12.384;2022-11-21T00:17:19;42.17;;;20.35;;
3257;SDS011;1641;51.306;12.384;2022-11-21T00:19:44;42.05;;;20.40;;
3257;SDS011;1641;51.306;12.384;2022-11-21T00:22:10;36.63;;;19.70;;
3257;SDS011;1641;51.306;12.384;2022-11-21T00:24:35;37.63;;;20.35;;
3257;SDS011;1641;51.306;12.384;2022-11-21T00:27:00;41.58;;;19.73;;
3257;SDS011;1641;51.306;12.384;2022-11-21T00:29:26;37.63;;;19.48;;
3257;SDS011;1641;51.306;12.384;2022-11-21T00:31:51;42.30;;;19.75;;
3257;SDS011;1641;51.306;12.384;2022-11-21T00:34:17;39.10;;;20.45;;
3257;SDS011;1641;51.306;12.384;2022-11-21T00:36:42;44.33;;;22.52;;
3257;SDS011;1641;51.306;12.384;2022-11-21T00:39:07;38.90;;;19.27;;
3257;SDS011;1641;51.306;12.384;2022-11-21T00:41:33;42.25;;;19.98;;
3257;SDS011;1641;51.306;12.384;2022-11-21T00:43:58;36.33;;;20.15;;
3257;SDS011;1641;51.306;12.384;2022-11-21T00:46:23;42.60;;;20.55;;
3257;SDS011;1641;51.306;12.384;2022-11-21T00:48:49;41.58;;;21.73;;
3257;SDS011;1641;51.306;12.384;2022-11-21T00:51:14;39.03;;;20.17;;
3257;SDS011;1641;51.306;12.384;2022-11-21T00:53:39;37.35;;;17.85;;
3257;SDS011;1641;51.306;12.384;2022-11-21T00:56:05;43.53;;;21.58;;
3257;SDS011;1641;51.306;12.384;2022-11-21T00:58:30;36.72;;;20.17;;
3257;SDS011;1641;51.306;12.384;2022-11-21T01:01:06;42.72;;;20.35;;
3257;SDS011;1641;51.306;12.384;2022-11-21T01:03:34;41.47;;;20.05;;
3257;SDS011;1641;51.306;12.384;2022-11-21T01:06:00;43.50;;;20.00;;
3257;SDS011;1641;51.306;12.384;2022-11-21T01:08:37;43.22;;;21.02;;
3257;SDS011;1641;51.306;12.384;2022-11-21T01:11:04;38.88;;;20.83;;
3257;SDS011;1641;51.306;12.384;2022-11-21T01:13:31;43.20;;;22.27;;
3257;SDS011;1641;51.306;12.384;2022-11-21T01:18:30;49.00;;;22.80;;
3257;SDS011;1641;51.306;12.384;2022-11-21T01:20:59;44.75;;;20.80;;
3257;SDS011;1641;51.306;12.384;2022-11-21T01:23:28;42.22;;;21.48;;
3257;SDS011;1641;51.306;12.384;2022-11-21T01:25:54;39.70;;;20.45;;
3257;SDS011;1641;51.306;12.384;2022-11-21T01:28:19;46.50;;;20.63;;
3257;SDS011;1641;51.306;12.384;2022-11-21T01:30:45;45.88;;;20.77;;
3257;SDS011;1641;51.306;12.384;2022-11-21T01:33:10;40.40;;;21.50;;
3257;SDS011;1641;51.306;12.384;2022-11-21T01:35:35;43.97;;;20.42;;
3257;SDS011;1641;51.306;12.384;2022-11-21T01:38:00;43.78;;;21.33;;
3257;SDS011;1641;51.306;12.384;2022-11-21T01:40:26;41.33;;;20.80;;
3257;SDS011;1641;51.306;12.384;2022-11-21T01:42:52;43.45;;;21.70;;
3257;SDS011;1641;51.306;12.384;2022-11-21T01:48:15;46.78;;;21.48;;
3257;SDS011;1641;51.306;12.384;2022-11-21T01:50:40;45.90;;;20.30;;
3257;SDS011;1641;51.306;12.384;2022-11-21T01:53:06;46.22;;;21.25;;
3257;SDS011;1641;51.306;12.384;2022-11-21T01:55:32;37.40;;;19.65;;
3257;SDS011;1641;51.306;12.384;2022-11-21T01:57:58;46.08;;;21.05;;
3257;SDS011;1641;51.306;12.384;2022-11-21T02:00:23;42.75;;;21.30;;
3257;SDS011;1641;51.306;12.384;2022-11-21T02:02:52;43.33;;;19.65;;
3257;SDS011;1641;51.306;12.384;2022-11-21T02:05:23;42.50;;;20.88;;
3257;SDS011;1641;51.306;12.384;2022-11-21T02:07:52;43.63;;;22.50;;
3257;SDS011;1641;51.306;12.384;2022-11-21T02:10:20;49.78;;;22.70;;
3257;SDS011;1641;51.306;12.384;2022-11-21T02:12:48;47.17;;;22.65;;
3257;SDS011;1641;51.306;12.384;2022-11-21T02:15:16;42.78;;;22.33;;
3257;SDS011;1641;51.306;12.384;2022-11-21T02:17:43;42.30;;;22.23;;
3257;SDS011;1641;51.306;12.384;2022-11-21T02:20:09;47.50;;;21.02;;
3257;SDS011;1641;51.306;12.384;2022-11-21T02:25:08;43.78;;;22.50;;
3257;SDS011;1641;51.306;12.384;2022-11-21T02:27:36;41.38;;;20.00;;
3257;SDS011;1641;51.306;12.384;2022-11-21T02:30:03;42.47;;;21.70;;
3257;SDS011;1641;51.306;12.384;2022-11-21T02:32:34;43.22;;;20.88;;
3257;SDS011;1641;51.306;12.384;2022-11-21T02:35:01;46.80;;;21.90;;
3257;SDS011;1641;51.306;12.384;2022-11-21T02:37:26;43.25;;;20.95;;
3257;SDS011;1641;51.306;12.384;2022-11-21T02:39:53;42.25;;;21.75;;
3257;SDS011;1641;51.306;12.384;2022-11-21T02:43:21;40.97;;;20.35;;
3257;SDS011;1641;51.306;12.384;2022-11-21T02:45:37;44.50;;;20.13;;
3257;SDS011;1641;51.306;12.384;2022-11-21T02:48:05;45.28;;;21.42;;
3257;SDS011;1641;51.306;12.384;2022-11-21T02:50:32;42.40;;;20.58;;
3257;SDS011;1641;51.306;12.384;2022-11-21T02:52:59;47.78;;;21.90;;
3257;SDS011;1641;51.306;12.384;2022-11-21T02:55:26;45.65;;;21.38;;
3257;SDS011;1641;51.306;12.384;2022-11-21T02:57:51;45.70;;;21.42;;
3257;SDS011;1641;51.306;12.384;2022-11-21T03:00:17;42.78;;;21.00;;
3257;SDS011;1641;51.306;12.384;2022-11-21T03:02:43;48.38;;;22.02;;
3257;SDS011;1641;51.306;12.384;2022-11-21T03:05:09;45.08;;;20.80;;
3257;SDS011;1641;51.306;12.384;2022-11-21T03:07:37;45.22;;;21.30;;
3257;SDS011;1641;51.306;12.384;2022-11-21T03:10:03;48.22;;;21.50;;
3257;SDS011;1641;51.306;12.384;2022-11-21T03:12:29;48.25;;;21.98;;
3257;SDS011;1641;51.306;12.384;2022-11-21T03:14:54;42.40;;;20.05;;
3257;SDS011;1641;51.306;12.384;2022-11-21T03:17:19;48.03;;;22.63;;
3257;SDS011;1641;51.306;12.384;2022-11-21T03:19:44;45.08;;;20.95;;
3257;SDS011;1641;51.306;12.384;2022-11-21T03:22:11;49.13;;;20.23;;
3257;SDS011;1641;51.306;12.384;2022-11-21T03:24:37;39.40;;;19.10;;
3257;SDS011;1641;51.306;12.384;2022-11-21T03:27:02;40.50;;;20.70;;
3257;SDS011;1641;51.306;12.384;2022-11-21T03:29:27;43.75;;;21.83;;
3257;SDS011;1641;51.306;12.384;2022-11-21T03:31:53;43.38;;;21.95;;
3257;SDS011;1641;51.306;12.384;2022-11-21T03:34:18;52.83;;;24.13;;
3257;SDS011;1641;51.306;12.384;2022-11-21T03:36:43;44.05;;;21.48;;
3257;SDS011;1641;51.306;12.384;2022-11-21T03:39:09;46.88;;;21.95;;
3257;SDS011;1641;51.306;12.384;2022-11-21T03:41:34;47.95;;;21.95;;
3257;SDS011;1641;51.306;12.384;2022-11-21T03:44:05;48.20;;;22.60;;
3257;SDS011;1641;51.306;12.384;2022-11-21T03:46:33;47.13;;;22.33;;
3257;SDS011;1641;51.306;12.384;2022-11-21T03:49:00;47.15;;;23.10;;
3257;SDS011;1641;51.306;12.384;2022-11-21T03:51:26;40.80;;;20.52;;
3257;SDS011;1641;51.306;12.384;2022-11-21T03:53:52;52.95;;;23.85;;
3257;SDS011;1641;51.306;12.384;2022-11-21T03:56:18;40.38;;;21.20;;
3257;SDS011;1641;51.306;12.384;2022-11-21T03:58:43;44.65;;;23.65;;
3257;SDS011;1641;51.306;12.384;2022-11-21T04:01:09;46.13;;;20.73;;
3257;SDS011;1641;51.306;12.384;2022-11-21T04:03:37;57.15;;;25.15;;
3257;SDS011;1641;51.306;12.384;2022-11-21T04:06:02;51.75;;;24.33;;
3257;SDS011;1641;51.306;12.384;2022-11-21T04:08:28;60.35;;;23.70;;
3257;SDS011;1641;51.306;12.384;2022-11-21T04:10:53;55.45;;;23.67;;
3257;SDS011;1641;51.306;12.384;2022-11-21T04:13:19;55.53;;;25.40;;
3257;SDS011;1641;51.306;12.384;2022-11-21T04:15:45;52.25;;;23.20;;
3257;SDS011;1641;51.306;12.384;2022-11-21T04:18:11;49.67;;;24.08;;
3257;SDS011;1641;51.306;12.384;2022-11-21T04:20:37;53.97;;;24.48;;
3257;SDS011;1641;51.306;12.384;2022-11-21T04:23:03;60.22;;;24.50;;
3257;SDS011;1641;51.306;12.384;2022-11-21T04:25:28;66.50;;;26.20;;
3257;SDS011;1641;51.306;12.384;2022-11-21T04:27:57;62.63;;;26.23;;
3257;SDS011;1641;51.306;12.384;2022-11-21T04:30:23;65.20;;;27.45;;
3257;SDS011;1641;51.306;12.384;2022-11-21T04:32:51;68.63;;;28.20;;
3257;SDS011;1641;51.306;12.384;2022-11-21T04:35:17;71.50;;;27.40;;
3257;SDS011;1641;51.306;12.384;2022-11-21T04:37:43;69.35;;;29.83;;
3257;SDS011;1641;51.306;12.384;2022-11-21T04:40:08;59.63;;;25.90;;
3257;SDS011;1641;51.306;12.384;2022-11-21T04:42:34;69.57;;;27.92;;
3257;SDS011;1641;51.306;12.384;2022-11-21T04:45:00;81.00;;;31.98;;
3257;SDS011;1641;51.306;12.384;2022-11-21T04:47:25;63.13;;;26.48;;
3257;SDS011;1641;51.306;12.384;2022-11-21T04:49:50;77.90;;;33.25;;
3257;SDS011;1641;51.306;12.384;2022-11-21T04:52:16;80.93;;;32.92;;
3257;SDS011;1641;51.306;12.384;2022-11-21T04:54:41;77.55;;;30.23;;
3257;SDS011;1641;51.306;12.384;2022-11-21T04:57:06;75.82;;;30.10;;
3257;SDS011;1641;51.306;12.384;2022-11-21T04:59:32;77.68;;;33.83;;
3257;SDS011;1641;51.306;12.384;2022-11-21T05:01:57;71.28;;;31.58;;
3257;SDS011;1641;51.306;12.384;2022-11-21T05:04:22;68.70;;;30.85;;
3257;SDS011;1641;51.306;12.384;2022-11-21T05:06:47;69.40;;;31.88;;
3257;SDS011;1641;51.306;12.384;2022-11-21T05:09:13;76.95;;;34.90;;
3257;SDS011;1641;51.306;12.384;2022-11-21T05:11:38;78.72;;;33.72;;
3257;SDS011;1641;51.306;12.384;2022-11-21T05:14:22;76.85;;;32.33;;
3257;SDS011;1641;51.306;12.384;2022-11-21T05:16:56;72.32;;;31.63;;
3257;SDS011;1641;51.306;12.384;2022-11-21T05:21:55;68.47;;;31.65;;
3257;SDS011;1641;51.306;12.384;2022-11-21T05:24:21;69.70;;;30.23;;
3257;SDS011;1641;51.306;12.384;2022-11-21T05:26:46;60.88;;;27.00;;
3257;SDS011;1641;51.306;12.384;2022-11-21T05:29:28;67.00;;;27.08;;
3257;SDS011;1641;51.306;12.384;2022-11-21T05:32:05;77.38;;;32.40;;
3257;SDS011;1641;51.306;12.384;2022-11-21T05:34:34;73.88;;;30.10;;
3257;SDS011;1641;51.306;12.384;2022-11-21T05:36:59;67.13;;;28.98;;
3257;SDS011;1641;51.306;12.384;2022-11-21T05:39:24;64.90;;;27.15;;
3257;SDS011;1641;51.306;12.384;2022-11-21T05:41:50;66.68;;;29.77;;
3257;SDS011;1641;51.306;12.384;2022-11-21T05:44:16;70.53;;;30.67;;
3257;SDS011;1641;51.306;12.384;2022-11-21T05:46:42;65.00;;;31.08;;
3257;SDS011;1641;51.306;12.384;2022-11-21T05:49:07;68.80;;;30.67;;
3257;SDS011;1641;51.306;12.384;2022-11-21T05:51:38;73.47;;;30.75;;
3257;SDS011;1641;51.306;12.384;2022-11-21T05:54:04;61.88;;;28.50;;
3257;SDS011;1641;51.306;12.384;2022-11-21T05:56:35;73.30;;;32.42;;
3257;SDS011;1641;51.306;12.384;2022-11-21T05:59:00;63.15;;;27.05;;
3257;SDS011;1641;51.306;12.384;2022-11-21T06:01:29;65.20;;;28.48;;
3257;SDS011;1641;51.306;12.384;2022-11-21T06:04:16;73.60;;;31.80;;
3257;SDS011;1641;51.306;12.384;2022-11-21T06:06:41;68.95;;;27.02;;
3257;SDS011;1641;51.306;12.384;2022-11-21T06:09:06;67.90;;;28.95;;
3257;SDS011;1641;51.306;12.384;2022-11-21T06:11:32;68.25;;;30.83;;
3257;SDS011;1641;51.306;12.384;2022-11-21T06:13:57;78.65;;;32.42;;
3257;SDS011;1641;51.306;12.384;2022-11-21T06:16:22;80.43;;;32.97;;
3257;SDS011;1641;51.306;12.384;2022-11-21T06:18:51;74.72;;;31.95;;
3257;SDS011;1641;51.306;12.384;2022-11-21T06:21:18;71.70;;;33.30;;
3257;SDS011;1641;51.306;12.384;2022-11-21T06:23:45;83.45;;;33.90;;
3257;SDS011;1641;51.306;12.384;2022-11-21T06:26:21;79.00;;;32.03;;
3257;SDS011;1641;51.306;12.384;2022-11-21T06:28:47;89.28;;;35.40;;
3257;SDS011;1641;51.306;12.384;2022-11-21T06:31:14;90.63;;;37.78;;
3257;SDS011;1641;51.306;12.384;2022-11-21T06:33:50;76.95;;;32.05;;
3257;SDS011;1641;51.306;12.384;2022-11-21T06:36:19;80.63;;;32.80;;
3257;SDS011;1641;51.306;12.384;2022-11-21T06:38:45;88.47;;;35.45;;
3257;SDS011;1641;51.306;12.384;2022-11-21T06:41:11;84.13;;;34.13;;
3257;SDS011;1641;51.306;12.384;2022-11-21T06:43:41;88.90;;;35.70;;
3257;SDS011;1641;51.306;12.384;2022-11-21T06:46:13;87.25;;;35.90;;
3257;SDS011;1641;51.306;12.384;2022-11-21T06:48:40;89.90;;;35.10;;
3257;SDS011;1641;51.306;12.384;2022-11-21T06:51:07;91.88;;;32.78;;
3257;SDS011;1641;51.306;12.384;2022-11-21T06:53:37;97.43;;;38.23;;
3257;SDS011;1641;51.306;12.384;2022-11-21T06:56:02;80.55;;;31.75;;
3257;SDS011;1641;51.306;12.384;2022-11-21T06:58:34;90.45;;;31.02;;
3257;SDS011;1641;51.306;12.384;2022-11-21T07:03:32;96.78;;;34.53;;
3257;SDS011;1641;51.306;12.384;2022-11-21T07:05:58;92.97;;;34.08;;
3257;SDS011;1641;51.306;12.384;2022-11-21T07:08:29;94.30;;;37.00;;
3257;SDS011;1641;51.306;12.384;2022-11-21T07:10:55;96.68;;;37.20;;
3257;SDS011;1641;51.306;12.384;2022-11-21T07:13:24;94.90;;;34.15;;
3257;SDS011;1641;51.306;12.384;2022-11-21T07:15:51;95.13;;;33.33;;
3257;SDS011;1641;51.306;12.384;2022-11-21T07:18:18;83.55;;;32.47;;
3257;SDS011;1641;51.306;12.384;2022-11-21T07:20:45;93.00;;;35.20;;
3257;SDS011;1641;51.306;12.384;2022-11-21T07:23:10;97.85;;;35.45;;
3257;SDS011;1641;51.306;12.384;2022-11-21T07:25:36;87.60;;;33.35;;
3257;SDS011;1641;51.306;12.384;2022-11-21T07:28:09;88.00;;;33.42;;
3257;SDS011;1641;51.306;12.384;2022-11-21T07:30:47;180.68;;;62.45;;
3257;SDS011;1641;51.306;12.384;2022-11-21T07:33:12;81.55;;;31.38;;
3257;SDS011;1641;51.306;12.384;2022-11-21T07:35:44;78.20;;;31.20;;
3257;SDS011;1641;51.306;12.384;2022-11-21T07:38:09;77.65;;;28.70;;
3257;SDS011;1641;51.306;12.384;2022-11-21T07:40:34;78.25;;;28.42;;
3257;SDS011;1641;51.306;12.384;2022-11-21T07:43:03;78.75;;;31.42;;
3257;SDS011;1641;51.306;12.384;2022-11-21T07:45:30;86.57;;;30.27;;
3257;SDS011;1641;51.306;12.384;2022-11-21T07:47:57;85.03;;;31.48;;
3257;SDS011;1641;51.306;12.384;2022-11-21T07:50:26;47.10;;;19.73;;
3257;SDS011;1641;51.306;12.384;2022-11-21T07:52:56;78.95;;;29.48;;
3257;SDS011;1641;51.306;12.384;2022-11-21T07:55:25;81.93;;;30.20;;
3257;SDS011;1641;51.306;12.384;2022-11-21T07:57:57;82.65;;;33.65;;
3257;SDS011;1641;51.306;12.384;2022-11-21T08:00:23;76.22;;;28.70;;
3257;SDS011;1641;51.306;12.384;2022-11-21T08:02:50;80.47;;;30.55;;
3257;SDS011;1641;51.306;12.384;2022-11-21T08:05:15;85.65;;;32.28;;
3257;SDS011;1641;51.306;12.384;2022-11-21T08:07:40;89.95;;;32.83;;
3257;SDS011;1641;51.306;12.384;2022-11-21T08:10:05;87.13;;;31.48;;
3257;SDS011;1641;51.306;12.384;2022-11-21T08:12:31;85.40;;;32.65;;
3257;SDS011;1641;51.306;12.384;2022-11-21T08:14:57;88.70;;;34.05;;
3257;SDS011;1641;51.306;12.384;2022-11-21T08:17:24;88.78;;;31.83;;
3257;SDS011;1641;51.306;12.384;2022-11-21T08:19:50;90.82;;;34.45;;
3257;SDS011;1641;51.306;12.384;2022-11-21T08:22:15;89.85;;;35.03;;
3257;SDS011;1641;51.306;12.384;2022-11-21T08:24:40;87.43;;;30.13;;
3257;SDS011;1641;51.306;12.384;2022-11-21T08:27:06;98.90;;;34.15;;
3257;SDS011;1641;51.306;12.384;2022-11-21T08:29:31;68.60;;;29.35;;
3257;SDS011;1641;51.306;12.384;2022-11-21T08:31:56;63.22;;;25.42;;
3257;SDS011;1641;51.306;12.384;2022-11-21T08:34:22;70.82;;;22.58;;
3257;SDS011;1641;51.306;12.384;2022-11-21T08:36:47;66.63;;;24.77;;
3257;SDS011;1641;51.306;12.384;2022-11-21T08:39:12;74.40;;;28.27;;
3257;SDS011;1641;51.306;12.384;2022-11-21T08:41:37;73.70;;;26.67;;
3257;SDS011;1641;51.306;12.384;2022-11-21T08:44:21;58.55;;;24.13;;
3257;SDS011;1641;51.306;12.384;2022-11-21T08:46:52;67.57;;;25.20;;
3257;SDS011;1641;51.306;12.384;2022-11-21T08:49:18;64.18;;;23.48;;
3257;SDS011;1641;51.306;12.384;2022-11-21T08:51:44;61.50;;;25.77;;
3257;SDS011;1641;51.306;12.384;2022-11-21T08:54:13;72.82;;;27.88;;
3257;SDS011;1641;51.306;12.384;2022-11-21T08:56:42;65.20;;;25.55;;
3257;SDS011;1641;51.306;12.384;2022-11-21T08:59:07;61.38;;;24.05;;
3257;SDS011;1641;51.306;12.384;2022-11-21T09:01:32;68.85;;;26.58;;
3257;SDS011;1641;51.306;12.384;2022-11-21T09:04:02;68.28;;;27.48;;
3257;SDS011;1641;51.306;12.384;2022-11-21T09:06:28;71.22;;;27.20;;
3257;SDS011;1641;51.306;12.384;2022-11-21T09:08:53;57.92;;;22.88;;
3257;SDS011;1641;51.306;12.384;2022-11-21T09:11:18;51.40;;;19.13;;
3257;SDS011;1641;51.306;12.384;2022-11-21T09:13:44;57.75;;;20.75;;
3257;SDS011;1641;51.306;12.384;2022-11-21T09:16:29;58.70;;;21.98;;
3257;SDS011;1641;51.306;12.384;2022-11-21T09:19:13;52.25;;;21.73;;
3257;SDS011;1641;51.306;12.384;2022-11-21T09:21:38;58.78;;;23.60;;
3257;SDS011;1641;51.306;12.384;2022-11-21T09:24:04;49.65;;;21.50;;
3257;SDS011;1641;51.306;12.384;2022-11-21T09:26:32;55.60;;;21.98;;
3257;SDS011;1641;51.306;12.384;2022-11-21T09:28:57;56.60;;;23.42;;
3257;SDS011;1641;51.306;12.384;2022-11-21T09:31:23;60.92;;;23.70;;
3257;SDS011;1641;51.306;12.384;2022-11-21T09:34:00;69.78;;;24.05;;
3257;SDS011;1641;51.306;12.384;2022-11-21T09:36:25;59.25;;;23.35;;
3257;SDS011;1641;51.306;12.384;2022-11-21T09:38:51;68.50;;;24.45;;
3257;SDS011;1641;51.306;12.384;2022-11-21T09:41:33;72.43;;;28.02;;
3257;SDS011;1641;51.306;12.384;2022-11-21T09:44:31;65.78;;;25.58;;
3257;SDS011;1641;51.306;12.384;2022-11-21T09:47:04;63.20;;;23.70;;
3257;SDS011;1641;51.306;12.384;2022-11-21T09:49:36;62.75;;;24.77;;
3257;SDS011;1641;51.306;12.384;2022-11-21T09:52:07;56.50;;;20.88;;
3257;SDS011;1641;51.306;12.384;2022-11-21T09:54:35;47.05;;;20.17;;
3257;SDS011;1641;51.306;12.384;2022-11-21T09:59:52;64.40;;;22.85;;
3257;SDS011;1641;51.306;12.384;2022-11-21T10:02:19;51.90;;;20.50;;
3257;SDS011;1641;51.306;12.384;2022-11-21T10:04:47;51.83;;;21.67;;
3257;SDS011;1641;51.306;12.384;2022-11-21T10:07:19;58.63;;;21.00;;
3257;SDS011;1641;51.306;12.384;2022-11-21T10:25:55;45.63;;;20.85;;
3257;SDS011;1641;51.306;12.384;2022-11-21T10:28:43;47.83;;;20.73;;
3257;SDS011;1641;51.306;12.384;2022-11-21T10:31:10;64.32;;;24.10;;
3257;SDS011;1641;51.306;12.384;2022-11-21T10:33:44;56.70;;;20.75;;
3257;SDS011;1641;51.306;12.384;2022-11-21T10:38:36;54.08;;;21.98;;
3257;SDS011;1641;51.306;12.384;2022-11-21T10:41:06;51.10;;;21.05;;
3257;SDS011;1641;51.306;12.384;2022-11-21T10:46:53;52.47;;;22.27;;
3257;SDS011;1641;51.306;12.384;2022-11-21T10:49:23;56.72;;;23.27;;
3257;SDS011;1641;51.306;12.384;2022-11-21T10:51:50;45.13;;;19.45;;
3257;SDS011;1641;51.306;12.384;2022-11-21T10:54:27;47.33;;;20.20;;
3257;SDS011;1641;51.306;12.384;2022-11-21T10:59:31;42.83;;;18.98;;
3257;SDS011;1641;51.306;12.384;2022-11-21T11:04:37;42.83;;;20.03;;
3257;SDS011;1641;51.306;12.384;2022-11-21T11:12:48;35.05;;;16.27;;
3257;SDS011;1641;51.306;12.384;2022-11-21T11:15:52;36.30;;;17.00;;
3257;SDS011;1641;51.306;12.384;2022-11-21T11:18:24;41.22;;;17.45;;
3257;SDS011;1641;51.306;12.384;2022-11-21T11:20:50;40.38;;;19.27;;
3257;SDS011;1641;51.306;12.384;2022-11-21T11:23:21;37.58;;;17.58;;
3257;SDS011;1641;51.306;12.384;2022-11-21T11:25:56;44.38;;;19.58;;
3257;SDS011;1641;51.306;12.384;2022-11-21T11:28:23;39.20;;;18.15;;
3257;SDS011;1641;51.306;12.384;2022-11-21T11:30:57;36.65;;;18.02;;
3257;SDS011;1641;51.306;12.384;2022-11-21T11:33:28;39.42;;;19.35;;
3257;SDS011;1641;51.306;12.384;2022-11-21T11:39:01;41.45;;;17.02;;
3257;SDS011;1641;51.306;12.384;2022-11-21T11:41:39;37.03;;;18.70;;
3257;SDS011;1641;51.306;12.384;2022-11-21T11:47:56;39.40;;;17.77;;
3257;SDS011;1641;51.306;12.384;2022-11-21T11:53:14;31.33;;;15.23;;
3257;SDS011;1641;51.306;12.384;2022-11-21T11:55:50;35.92;;;17.77;;
3257;SDS011;1641;51.306;12.384;2022-11-21T11:58:20;35.78;;;18.92;;
3257;SDS011;1641;51.306;12.384;2022-11-21T12:00:54;40.20;;;19.02;;
3257;SDS011;1641;51.306;12.384;2022-11-21T12:06:40;28.75;;;14.75;;
3257;SDS011;1641;51.306;12.384;2022-11-21T12:09:15;26.55;;;12.55;;
3257;SDS011;1641;51.306;12.384;2022-11-21T12:17:34;28.88;;;13.43;;
3257;SDS011;1641;51.306;12.384;2022-11-21T12:20:12;23.75;;;13.13;;
3257;SDS011;1641;51.306;12.384;2022-11-21T12:22:40;28.52;;;12.65;;
3257;SDS011;1641;51.306;12.384;2022-11-21T12:25:11;23.42;;;12.35;;
3257;SDS011;1641;51.306;12.384;2022-11-21T12:27:39;23.52;;;12.55;;
3257;SDS011;1641;51.306;12.384;2022-11-21T12:50:26;34.33;;;15.65;;
3257;SDS011;1641;51.306;12.384;2022-11-21T12:53:32;29.92;;;15.63;;
3257;SDS011;1641;51.306;12.384;2022-11-21T12:59:07;27.55;;;14.20;;
3257;SDS011;1641;51.306;12.384;2022-11-21T13:01:38;27.58;;;15.13;;
3257;SDS011;1641;51.306;12.384;2022-11-21T13:04:44;37.13;;;18.75;;
3257;SDS011;1641;51.306;12.384;2022-11-21T13:07:13;46.38;;;20.33;;
3257;SDS011;1641;51.306;12.384;2022-11-21T13:09:40;46.80;;;21.65;;
3257;SDS011;1641;51.306;12.384;2022-11-21T13:15:07;43.95;;;20.98;;
3257;SDS011;1641;51.306;12.384;2022-11-21T13:23:33;48.17;;;22.25;;
3257;SDS011;1641;51.306;12.384;2022-11-21T13:28:49;48.45;;;21.17;;
3257;SDS011;1641;51.306;12.384;2022-11-21T13:31:32;46.10;;;21.33;;
3257;SDS011;1641;51.306;12.384;2022-11-21T13:46:57;32.17;;;16.30;;
3257;SDS011;1641;51.306;12.384;2022-11-21T13:58:38;27.17;;;14.57;;
3257;SDS011;1641;51.306;12.384;2022-11-21T14:06:36;37.60;;;17.92;;
3257;SDS011;1641;51.306;12.384;2022-11-21T14:12:02;39.30;;;18.98;;
3257;SDS011;1641;51.306;12.384;2022-11-21T14:19:58;47.78;;;19.10;;
3257;SDS011;1641;51.306;12.384;2022-11-21T14:22:39;48.55;;;20.48;;
3257;SDS011;1641;51.306;12.384;2022-11-21T14:25:08;53.40;;;24.10;;
3257;SDS011;1641;51.306;12.384;2022-11-21T14:27:39;47.45;;;21.38;;
3257;SDS011;1641;51.306;12.384;2022-11-21T14:30:26;47.58;;;19.15;;
3257;SDS011;1641;51.306;12.384;2022-11-21T14:32:53;44.55;;;18.58;;
3257;SDS011;1641;51.306;12.384;2022-11-21T14:35:19;44.75;;;18.63;;
3257;SDS011;1641;51.306;12.384;2022-11-21T14:37:47;51.17;;;24.00;;
3257;SDS011;1641;51.306;12.384;2022-11-21T14:40:18;46.47;;;21.08;;
3257;SDS011;1641;51.306;12.384;2022-11-21T14:42:46;44.55;;;18.58;;
3257;SDS011;1641;51.306;12.384;2022-11-21T14:45:18;38.53;;;17.58;;
3257;SDS011;1641;51.306;12.384;2022-11-21T14:47:50;70.55;;;31.38;;
3257;SDS011;1641;51.306;12.384;2022-11-21T14:50:23;46.55;;;19.55;;
3257;SDS011;1641;51.306;12.384;2022-11-21T14:52:54;43.55;;;19.77;;
3257;SDS011;1641;51.306;12.384;2022-11-21T14:55:39;50.45;;;19.25;;
3257;SDS011;1641;51.306;12.384;2022-11-21T14:58:04;41.30;;;17.52;;
3257;SDS011;1641;51.306;12.384;2022-11-21T15:00:30;44.90;;;20.30;;
3257;SDS011;1641;51.306;12.384;2022-11-21T15:02:56;33.97;;;16.60;;
3257;SDS011;1641;51.306;12.384;2022-11-21T15:05:29;34.50;;;17.33;;
3257;SDS011;1641;51.306;12.384;2022-11-21T15:07:57;29.60;;;16.10;;
3257;SDS011;1641;51.306;12.384;2022-11-21T15:10:24;38.33;;;18.40;;
3257;SDS011;1641;51.306;12.384;2022-11-21T15:12:59;38.00;;;18.27;;
3257;SDS011;1641;51.306;12.384;2022-11-21T15:15:32;35.53;;;17.63;;
3257;SDS011;1641;51.306;12.384;2022-11-21T15:18:06;43.13;;;18.95;;
3257;SDS011;1641;51.306;12.384;2022-11-21T15:20:47;39.33;;;19.38;;
3257;SDS011;1641;51.306;12.384;2022-11-21T15:23:29;44.38;;;21.80;;
3257;SDS011;1641;51.306;12.384;2022-11-21T15:25:59;42.30;;;20.63;;
3257;SDS011;1641;51.306;12.384;2022-11-21T15:28:26;41.22;;;20.48;;
3257;SDS011;1641;51.306;12.384;2022-11-21T15:33:54;45.67;;;22.45;;
3257;SDS011;1641;51.306;12.384;2022-11-21T15:36:43;44.88;;;23.10;;
3257;SDS011;1641;51.306;12.384;2022-11-21T15:39:11;42.35;;;23.50;;
3257;SDS011;1641;51.306;12.384;2022-11-21T15:41:41;41.33;;;21.42;;
3257;SDS011;1641;51.306;12.384;2022-11-21T15:46:36;46.75;;;24.65;;
3257;SDS011;1641;51.306;12.384;2022-11-21T15:49:06;101.30;;;49.65;;
3257;SDS011;1641;51.306;12.384;2022-11-21T15:54:05;50.00;;;25.23;;
3257;SDS011;1641;51.306;12.384;2022-11-21T15:56:34;47.17;;;22.02;;
3257;SDS011;1641;51.306;12.384;2022-11-21T15:58:59;38.65;;;19.50;;
3257;SDS011;1641;51.306;12.384;2022-11-21T16:01:25;44.83;;;21.00;;
3257;SDS011;1641;51.306;12.384;2022-11-21T16:03:57;42.78;;;20.02;;
3257;SDS011;1641;51.306;12.384;2022-11-21T16:06:25;46.00;;;21.33;;
3257;SDS011;1641;51.306;12.384;2022-11-21T16:08:51;45.92;;;20.73;;
3257;SDS011;1641;51.306;12.384;2022-11-21T16:11:27;44.92;;;19.85;;
3257;SDS011;1641;51.306;12.384;2022-11-21T16:13:55;46.92;;;22.55;;
3257;SDS011;1641;51.306;12.384;2022-11-21T16:16:23;48.67;;;22.48;;
3257;SDS011;1641;51.306;12.384;2022-11-21T16:18:49;43.92;;;20.90;;
3257;SDS011;1641;51.306;12.384;2022-11-21T16:21:15;46.03;;;22.52;;
3257;SDS011;1641;51.306;12.384;2022-11-21T16:23:40;53.42;;;26.02;;
3257;SDS011;1641;51.306;12.384;2022-11-21T16:26:07;46.80;;;21.80;;
3257;SDS011;1641;51.306;12.384;2022-11-21T16:28:33;53.47;;;24.25;;
3257;SDS011;1641;51.306;12.384;2022-11-21T16:30:59;50.38;;;24.85;;
3257;SDS011;1641;51.306;12.384;2022-11-21T16:33:28;52.63;;;24.23;;
3257;SDS011;1641;51.306;12.384;2022-11-21T16:35:54;52.38;;;25.88;;
3257;SDS011;1641;51.306;12.384;2022-11-21T16:38:21;54.67;;;26.75;;
3257;SDS011;1641;51.306;12.384;2022-11-21T16:40:57;53.65;;;24.52;;
3257;SDS011;1641;51.306;12.384;2022-11-21T16:43:24;51.03;;;23.30;;
3257;SDS011;1641;51.306;12.384;2022-11-21T16:45:51;56.40;;;23.60;;
3257;SDS011;1641;51.306;12.384;2022-11-21T16:48:17;60.65;;;26.75;;
3257;SDS011;1641;51.306;12.384;2022-11-21T16:50:43;52.50;;;24.27;;
3257;SDS011;1641;51.306;12.384;2022-11-21T16:53:09;48.90;;;23.92;;
3257;SDS011;1641;51.306;12.384;2022-11-21T16:55:34;42.40;;;20.30;;
3257;SDS011;1641;51.306;12.384;2022-11-21T16:57:59;53.72;;;23.70;;
3257;SDS011;1641;51.306;12.384;2022-11-21T17:00:25;61.50;;;25.08;;
3257;SDS011;1641;51.306;12.384;2022-11-21T17:02:51;66.45;;;26.85;;
3257;SDS011;1641;51.306;12.384;2022-11-21T17:05:17;66.68;;;29.90;;
3257;SDS011;1641;51.306;12.384;2022-11-21T17:07:43;60.15;;;26.10;;